• Join FlightAware (Why Join?)
  • Login
  • US Flag 
06:00AM EDT


 

Airport Tracker/Info


-or-


 

Live Flight TrackerFlight Track Log ✈ EJA396 ✈ 21-Jul-2013 ✈ KSDF - KPNE

Flight Track Log - Related Links

Times and Time Zones

All times are in EDT time to prevent confusion due to time zone crossing. See the EJA396 flight status page for this flight to view local times or setup timezone preferences in your user account.

Time Position Orientation Groundspeed Altitude Reporting Facility
EDT Latitude Longitude Course Direction KTS MPH feet Rate Location/Type
03:44PM 38.1019 -85.7022 167° South 244 281 5,400  Level Indianapolis Center
03:45PM 38.0800 -85.6128 107° East 268 308 9,500 3,660 Climbing Indianapolis Center
03:46PM 38.0781 -85.5003 91° East 316 364 13,000 3,240 Climbing Indianapolis Center
03:47PM 38.0947 -85.3856 80° East 344 396 16,300 2,760 Climbing Indianapolis Center
03:48PM 38.1469 -85.2461 65° Northeast 367 422 18,800 2,040 Climbing Indianapolis Center
03:49PM 38.1908 -85.1308 64° Northeast 389 448 20,600 1,680 Climbing Indianapolis Center
03:50PM 38.2497 -84.9706 65° Northeast 423 487 22,300 2,220 Climbing Indianapolis Center
03:51PM 38.3017 -84.8353 64° Northeast 423 487 25,300 2,460 Climbing Indianapolis Center
03:52PM 38.3500 -84.7056 65° Northeast 408 470 27,400 1,620 Climbing Indianapolis Center
03:53PM 38.3967 -84.5775 65° Northeast 402 463 28,700 1,080 Climbing Indianapolis Center
03:54PM 38.4447 -84.4456 65° Northeast 405 466 29,700 960 Climbing Indianapolis Center
03:55PM 38.4944 -84.3078 65° Northeast 416 479 30,700 960 Climbing Indianapolis Center
03:56PM 38.5478 -84.1642 65° Northeast 430 495 31,700 1,200 Climbing Indianapolis Center
03:57PM 38.6100 -83.9911 65° Northeast 453 521 33,300 1,500 Climbing Indianapolis Center
03:58PM 38.6658 -83.8383 65° Northeast 464 534 34,800 1,440 Climbing Indianapolis Center
03:59PM 38.7194 -83.6872 66° East 463 533 36,300 1,020 Climbing Indianapolis Center
04:00PM 38.7742 -83.5353 65° Northeast 467 537 37,000 300 Climbing Indianapolis Center
04:01PM 38.8311 -83.3739 66° East 487 560 37,000  Level Indianapolis Center
04:02PM 38.8889 -83.2089 66° East 501 577 37,000  Level Indianapolis Center
04:03PM 38.9492 -83.0372 66° East 504 580 37,000 -240 Level Indianapolis Center
04:04PM 39.0064 -82.8736 66° East 502 578 36,600 -540 Descending Indianapolis Center
04:05PM 39.0622 -82.7108 66° East 498 573 36,000 -300 Descending Indianapolis Center
04:07PM 39.1192 -82.5481 66° East 496 571 36,000  Level Indianapolis Center
04:08PM 39.1747 -82.3847 66° East 497 572 36,000  Level Indianapolis Center
04:09PM 39.2439 -82.1836 66° East 506 582 36,000 -120 Level Indianapolis Center
04:10PM 39.3006 -82.0167 66° East 504 580 35,800 -540 Descending Indianapolis Center
04:11PM 39.3575 -81.8497 66° East 505 581 35,000 -420 Descending Indianapolis Center
04:12PM 39.4136 -81.6825 66° East 504 580 35,000  Level Indianapolis Center
04:13PM 39.4706 -81.5122 67° East 510 587 35,000  Level Indianapolis Center
04:14PM 39.5261 -81.3425 67° East 510 587 35,000  Level Indianapolis Center
04:15PM 39.5814 -81.1717 67° East 511 588 35,000  Level Indianapolis Center
04:16PM 39.6372 -81.0036 67° East 508 585 35,000  Level Indianapolis Center
04:17PM 39.6917 -80.8339 67° East 508 585 35,000  Level Indianapolis Center
04:18PM 39.7572 -80.6308 67° East 507 583 35,000  Level Indianapolis Center
04:19PM 39.8117 -80.4606 67° East 508 585 35,000  Level Indianapolis Center
04:20PM 39.8708 -80.2800 67° East 502 578 35,000  Level Cleveland Center
04:21PM 39.9264 -80.1094 67° East 502 578 35,000  Level Cleveland Center
04:22PM 39.9839 -79.9219 68° East 501 577 35,000  Level Cleveland Center
04:23PM 40.0369 -79.7561 67° East 501 577 35,000  Level Cleveland Center
04:24PM 40.0900 -79.5817 68° East 501 577 35,000  Level Cleveland Center
04:25PM 40.1444 -79.4125 67° East 501 577 35,000  Level Cleveland Center
04:26PM 40.1947 -79.2431 69° East 501 577 35,000  Level Cleveland Center
04:27PM 40.2467 -79.0681 69° East 496 571 35,000  Level Cleveland Center
04:28PM 40.2986 -78.8953 68° East 501 577 35,000 -120 Level Cleveland Center
04:29PM 40.3164 -78.7097 83° East 501 577 34,800 -1,200 Descending Cleveland Center
04:30PM 40.3156 -78.5272 90° East 501 577 32,700 -2,580 Descending Cleveland Center
04:32PM 40.3139 -78.1892 90° East 508 585 27,800 -2,700 Descending New York Center
04:33PM 40.3128 -78.0067 90° East 513 590 25,200 -1,440 Descending New York Center
04:34PM 40.3111 -77.8267 91° East 508 585 25,000 -840 Descending New York Center
04:35PM 40.2983 -77.6567 96° East 497 572 23,500 -1,620 Descending New York Center
04:36PM 40.2789 -77.4861 98° East 478 550 21,900 -1,680 Descending New York Center
04:37PM 40.2567 -77.3233 100° East 462 532 20,300 -1,620 Descending New York Center
04:38PM 40.2394 -77.1831 99° East 435 501 18,700 -1,620 Descending New York Center
04:39PM 40.2172 -77.0150 100° East 429 494 17,100 -900 Descending New York Center
04:40PM 40.1992 -76.8803 100° East 422 486 17,000 -600 Descending New York Center
04:41PM 40.1781 -76.7208 100° East 412 474 16,000 -1,560 Descending New York Center
04:42PM 40.1600 -76.5833 100° East 394 453 14,000 -1,920 Descending New York Center
04:43PM 40.1417 -76.4461 100° East 385 443 12,100 -1,020 Descending New York Center
04:44PM 40.1244 -76.3250 100° East 378 435 12,000 -60 Descending New York Center
04:45PM 40.1142 -76.1886 96° East 373 429 12,000  Level New York Center
04:46PM 40.1042 -76.0386 95° East 373 429 12,000 -900 Level New York Center
04:47PM 40.0953 -75.9131 95° East 360 414 10,300 -1,800 Descending New York Center
04:48PM 40.0853 -75.8064 97° East 325 374 8,500 -1,920 Descending New York Center
04:49PM 40.0917 -75.7011 85° East 291 335 6,500 -1,800 Descending New York Center
04:50PM 40.1083 -75.6017 78° East 285 328 4,900 -1,440 Descending New York Center
04:51PM 40.1225 -75.5106 78° East 263 303 3,600 -960 Descending New York Center
04:52PM 40.1381 -75.4328 75° East 232 267 3,000 -360 Descending New York Center
04:53PM 40.1286 -75.3561 99° East 208 239 3,000  Level New York Center
04:54PM 40.1147 -75.2819 104° East 213 245 3,000  Level New York Center
04:54PM 40.1167 -75.2500 85° East 170 196 3,000 -300 Level Philadelphia TRACON
04:55PM 40.1000 -75.1667 105° East 221 254 2,600 -600 Descending Philadelphia TRACON
04:56PM 40.0833 -75.1167 114° Southeast 173 199 1,800 -720 Descending Philadelphia TRACON
04:57PM 40.0667 -75.0667 114° Southeast 114 131 1,200 4,320 Descending Philadelphia TRACON
05:00PM 40.0261 -74.9725 119° Southeast 128 147 17,000 4,560 Climbing New York Center
05:01PM 40.0131 -74.9311 112° Southeast 128 147 17,000  Level New York Center